sensor_id;sensor_type;location;lat;lon;timestamp;temperature;humidity
79494;SHT31;68951;53.130;18.104;2023-04-25T00:00:45;12.99;75.80
79494;SHT31;68951;53.130;18.104;2023-04-25T00:03:20;12.99;75.89
79494;SHT31;68951;53.130;18.104;2023-04-25T00:05:47;12.97;75.90
79494;SHT31;68951;53.130;18.104;2023-04-25T00:08:15;12.93;75.96
79494;SHT31;68951;53.130;18.104;2023-04-25T00:10:41;12.92;76.00
79494;SHT31;68951;53.130;18.104;2023-04-25T00:13:08;12.90;76.07
79494;SHT31;68951;53.130;18.104;2023-04-25T00:15:37;12.87;76.10
79494;SHT31;68951;53.130;18.104;2023-04-25T00:18:05;12.89;76.10
79494;SHT31;68951;53.130;18.104;2023-04-25T00:20:32;12.90;76.10
79494;SHT31;68951;53.130;18.104;2023-04-25T00:22:59;12.91;76.15
79494;SHT31;68951;53.130;18.104;2023-04-25T00:25:26;12.90;76.13
79494;SHT31;68951;53.130;18.104;2023-04-25T00:27:53;12.87;76.11
79494;SHT31;68951;53.130;18.104;2023-04-25T00:30:19;12.83;76.10
79494;SHT31;68951;53.130;18.104;2023-04-25T00:32:46;12.75;76.02
79494;SHT31;68951;53.130;18.104;2023-04-25T00:35:13;12.69;76.00
79494;SHT31;68951;53.130;18.104;2023-04-25T00:37:40;12.64;75.92
79494;SHT31;68951;53.130;18.104;2023-04-25T00:40:07;12.57;75.84
79494;SHT31;68951;53.130;18.104;2023-04-25T00:42:35;12.53;75.74
79494;SHT31;68951;53.130;18.104;2023-04-25T00:45:04;12.47;75.65
79494;SHT31;68951;53.130;18.104;2023-04-25T00:47:33;12.41;75.54
79494;SHT31;68951;53.130;18.104;2023-04-25T00:50:02;12.37;75.43
79494;SHT31;68951;53.130;18.104;2023-04-25T00:52:29;12.32;75.27
79494;SHT31;68951;53.130;18.104;2023-04-25T00:54:56;12.26;75.16
79494;SHT31;68951;53.130;18.104;2023-04-25T00:57:23;12.18;75.05
79494;SHT31;68951;53.130;18.104;2023-04-25T00:59:50;12.17;74.90
79494;SHT31;68951;53.130;18.104;2023-04-25T01:02:18;12.14;74.65
79494;SHT31;68951;53.130;18.104;2023-04-25T01:04:47;12.06;74.43
79494;SHT31;68951;53.130;18.104;2023-04-25T01:07:14;11.98;74.18
79494;SHT31;68951;53.130;18.104;2023-04-25T01:09:42;11.92;74.01
79494;SHT31;68951;53.130;18.104;2023-04-25T01:12:09;11.88;73.84
79494;SHT31;68951;53.130;18.104;2023-04-25T01:14:36;11.85;73.70
79494;SHT31;68951;53.130;18.104;2023-04-25T01:17:03;11.82;73.56
79494;SHT31;68951;53.130;18.104;2023-04-25T01:19:30;11.77;73.49
79494;SHT31;68951;53.130;18.104;2023-04-25T01:21:57;11.73;73.49
79494;SHT31;68951;53.130;18.104;2023-04-25T01:24:24;11.71;73.44
79494;SHT31;68951;53.130;18.104;2023-04-25T01:26:52;11.71;73.41
79494;SHT31;68951;53.130;18.104;2023-04-25T01:29:22;11.67;73.31
79494;SHT31;68951;53.130;18.104;2023-04-25T01:31:51;11.65;73.30
79494;SHT31;68951;53.130;18.104;2023-04-25T01:34:19;11.65;73.22
79494;SHT31;68951;53.130;18.104;2023-04-25T01:36:47;11.61;73.13
79494;SHT31;68951;53.130;18.104;2023-04-25T01:39:17;11.56;73.05
79494;SHT31;68951;53.130;18.104;2023-04-25T01:41:48;11.50;73.00
79494;SHT31;68951;53.130;18.104;2023-04-25T01:44:15;11.44;72.93
79494;SHT31;68951;53.130;18.104;2023-04-25T01:46:42;11.35;72.87
79494;SHT31;68951;53.130;18.104;2023-04-25T01:49:09;11.33;72.80
79494;SHT31;68951;53.130;18.104;2023-04-25T01:51:36;11.31;72.80
79494;SHT31;68951;53.130;18.104;2023-04-25T01:54:03;11.27;72.74
79494;SHT31;68951;53.130;18.104;2023-04-25T01:56:31;11.24;72.70
79494;SHT31;68951;53.130;18.104;2023-04-25T01:58:59;11.23;72.70
79494;SHT31;68951;53.130;18.104;2023-04-25T02:01:26;11.17;72.70
79494;SHT31;68951;53.130;18.104;2023-04-25T02:03:53;11.09;72.76
79494;SHT31;68951;53.130;18.104;2023-04-25T02:06:20;11.09;72.85
79494;SHT31;68951;53.130;18.104;2023-04-25T02:08:46;11.11;72.92
79494;SHT31;68951;53.130;18.104;2023-04-25T02:11:13;11.15;72.98
79494;SHT31;68951;53.130;18.104;2023-04-25T02:13:40;11.14;72.99
79494;SHT31;68951;53.130;18.104;2023-04-25T02:16:07;11.08;73.03
79494;SHT31;68951;53.130;18.104;2023-04-25T02:18:34;11.05;73.10
79494;SHT31;68951;53.130;18.104;2023-04-25T02:21:03;11.04;73.19
79494;SHT31;68951;53.130;18.104;2023-04-25T02:23:30;10.97;73.27
79494;SHT31;68951;53.130;18.104;2023-04-25T02:25:57;10.94;73.33
79494;SHT31;68951;53.130;18.104;2023-04-25T02:28:24;10.89;73.42
79494;SHT31;68951;53.130;18.104;2023-04-25T02:30:52;10.84;73.50
79494;SHT31;68951;53.130;18.104;2023-04-25T02:33:19;10.74;73.55
79494;SHT31;68951;53.130;18.104;2023-04-25T02:35:47;10.71;73.60
79494;SHT31;68951;53.130;18.104;2023-04-25T02:38:14;10.63;73.60
79494;SHT31;68951;53.130;18.104;2023-04-25T02:40:41;10.59;73.65
79494;SHT31;68951;53.130;18.104;2023-04-25T02:43:08;10.56;73.68
79494;SHT31;68951;53.130;18.104;2023-04-25T02:45:34;10.50;73.63
79494;SHT31;68951;53.130;18.104;2023-04-25T02:48:02;10.45;73.68
79494;SHT31;68951;53.130;18.104;2023-04-25T02:50:29;10.41;73.69
79494;SHT31;68951;53.130;18.104;2023-04-25T02:52:56;10.36;73.70
79494;SHT31;68951;53.130;18.104;2023-04-25T02:55:23;10.36;73.63
79494;SHT31;68951;53.130;18.104;2023-04-25T02:57:50;10.38;73.60
79494;SHT31;68951;53.130;18.104;2023-04-25T03:00:17;10.34;73.60
79494;SHT31;68951;53.130;18.104;2023-04-25T03:02:43;10.31;73.58
79494;SHT31;68951;53.130;18.104;2023-04-25T03:05:10;10.24;73.58
79494;SHT31;68951;53.130;18.104;2023-04-25T03:07:37;10.16;73.50
79494;SHT31;68951;53.130;18.104;2023-04-25T03:10:06;10.11;73.50
79494;SHT31;68951;53.130;18.104;2023-04-25T03:12:34;10.08;73.50
79494;SHT31;68951;53.130;18.104;2023-04-25T03:15:00;10.01;73.50
79494;SHT31;68951;53.130;18.104;2023-04-25T03:17:27;9.92;73.50
79494;SHT31;68951;53.130;18.104;2023-04-25T03:19:54;9.89;73.50
79494;SHT31;68951;53.130;18.104;2023-04-25T03:22:21;9.87;73.50
79494;SHT31;68951;53.130;18.104;2023-04-25T03:24:49;9.88;73.50
79494;SHT31;68951;53.130;18.104;2023-04-25T03:27:16;9.84;73.50
79494;SHT31;68951;53.130;18.104;2023-04-25T03:29:43;9.78;73.49
79494;SHT31;68951;53.130;18.104;2023-04-25T03:32:10;9.77;73.50
79494;SHT31;68951;53.130;18.104;2023-04-25T03:34:37;9.80;73.48
79494;SHT31;68951;53.130;18.104;2023-04-25T03:37:04;9.81;73.41
79494;SHT31;68951;53.130;18.104;2023-04-25T03:39:31;9.75;73.40
79494;SHT31;68951;53.130;18.104;2023-04-25T03:41:58;9.69;73.36
79494;SHT31;68951;53.130;18.104;2023-04-25T03:44:24;9.57;73.37
79494;SHT31;68951;53.130;18.104;2023-04-25T03:46:51;9.50;73.40
79494;SHT31;68951;53.130;18.104;2023-04-25T03:49:18;9.48;73.40
79494;SHT31;68951;53.130;18.104;2023-04-25T03:51:45;9.47;73.40
79494;SHT31;68951;53.130;18.104;2023-04-25T03:54:11;9.43;73.40
79494;SHT31;68951;53.130;18.104;2023-04-25T03:56:38;9.37;73.41
79494;SHT31;68951;53.130;18.104;2023-04-25T03:59:05;9.40;73.47
79494;SHT31;68951;53.130;18.104;2023-04-25T04:01:32;9.47;73.45
79494;SHT31;68951;53.130;18.104;2023-04-25T04:03:58;9.50;73.40
79494;SHT31;68951;53.130;18.104;2023-04-25T04:06:25;9.51;73.37
79494;SHT31;68951;53.130;18.104;2023-04-25T04:08:52;9.47;73.30
79494;SHT31;68951;53.130;18.104;2023-04-25T04:11:19;9.47;73.30
79494;SHT31;68951;53.130;18.104;2023-04-25T04:13:46;9.41;73.21
79494;SHT31;68951;53.130;18.104;2023-04-25T04:16:13;9.38;73.17
79494;SHT31;68951;53.130;18.104;2023-04-25T04:18:40;9.39;73.10
79494;SHT31;68951;53.130;18.104;2023-04-25T04:21:07;9.34;73.07
79494;SHT31;68951;53.130;18.104;2023-04-25T04:23:34;9.27;73.01
79494;SHT31;68951;53.130;18.104;2023-04-25T04:26:01;9.23;73.00
79494;SHT31;68951;53.130;18.104;2023-04-25T04:28:28;9.26;73.00
79494;SHT31;68951;53.130;18.104;2023-04-25T04:30:55;9.26;72.95
79494;SHT31;68951;53.130;18.104;2023-04-25T04:33:21;9.24;72.90
79494;SHT31;68951;53.130;18.104;2023-04-25T04:35:50;9.20;72.90
79494;SHT31;68951;53.130;18.104;2023-04-25T04:38:18;9.17;72.90
79494;SHT31;68951;53.130;18.104;2023-04-25T04:40:46;9.24;72.90
79494;SHT31;68951;53.130;18.104;2023-04-25T04:43:13;9.27;72.83
79494;SHT31;68951;53.130;18.104;2023-04-25T04:45:43;9.26;72.77
79494;SHT31;68951;53.130;18.104;2023-04-25T04:48:11;9.21;72.70
79494;SHT31;68951;53.130;18.104;2023-04-25T04:50:40;9.19;72.70
79494;SHT31;68951;53.130;18.104;2023-04-25T04:53:08;9.21;72.70
79494;SHT31;68951;53.130;18.104;2023-04-25T04:55:35;9.21;72.70
79494;SHT31;68951;53.130;18.104;2023-04-25T04:58:02;9.28;72.69
79494;SHT31;68951;53.130;18.104;2023-04-25T05:00:29;9.33;72.62
79494;SHT31;68951;53.130;18.104;2023-04-25T05:02:56;9.34;72.53
79494;SHT31;68951;53.130;18.104;2023-04-25T05:05:23;9.34;72.44
79494;SHT31;68951;53.130;18.104;2023-04-25T05:07:50;9.35;72.40
79494;SHT31;68951;53.130;18.104;2023-04-25T05:10:18;9.35;72.32
79494;SHT31;68951;53.130;18.104;2023-04-25T05:12:46;9.34;72.31
79494;SHT31;68951;53.130;18.104;2023-04-25T05:15:13;9.40;72.30
79494;SHT31;68951;53.130;18.104;2023-04-25T05:17:40;9.39;72.21
79494;SHT31;68951;53.130;18.104;2023-04-25T05:20:07;9.38;72.18
79494;SHT31;68951;53.130;18.104;2023-04-25T05:22:37;9.41;72.14
79494;SHT31;68951;53.130;18.104;2023-04-25T05:25:04;9.46;72.11
79494;SHT31;68951;53.130;18.104;2023-04-25T05:27:31;9.52;72.04
79494;SHT31;68951;53.130;18.104;2023-04-25T05:29:58;9.60;71.96
79494;SHT31;68951;53.130;18.104;2023-04-25T05:32:26;9.70;71.89
79494;SHT31;68951;53.130;18.104;2023-04-25T05:34:53;9.70;71.75
79494;SHT31;68951;53.130;18.104;2023-04-25T05:37:19;9.76;71.62
79494;SHT31;68951;53.130;18.104;2023-04-25T05:39:46;9.85;71.54
79494;SHT31;68951;53.130;18.104;2023-04-25T05:42:14;9.94;71.42
79494;SHT31;68951;53.130;18.104;2023-04-25T05:44:41;10.00;71.30
79494;SHT31;68951;53.130;18.104;2023-04-25T05:47:07;10.02;71.20
79494;SHT31;68951;53.130;18.104;2023-04-25T05:49:34;10.06;71.11
79494;SHT31;68951;53.130;18.104;2023-04-25T05:52:01;10.14;71.02
79494;SHT31;68951;53.130;18.104;2023-04-25T05:54:28;10.16;70.91
79494;SHT31;68951;53.130;18.104;2023-04-25T06:10:19;11.09;69.86
79494;SHT31;68951;53.130;18.104;2023-04-25T06:12:49;11.05;69.66
79494;SHT31;68951;53.130;18.104;2023-04-25T06:15:16;10.99;69.54
79494;SHT31;68951;53.130;18.104;2023-04-25T06:17:43;10.80;69.29
79494;SHT31;68951;53.130;18.104;2023-04-25T06:20:10;10.73;69.19
79494;SHT31;68951;53.130;18.104;2023-04-25T06:22:37;10.67;69.11
79494;SHT31;68951;53.130;18.104;2023-04-25T06:25:04;10.53;69.02
79494;SHT31;68951;53.130;18.104;2023-04-25T06:27:33;10.48;69.00
79494;SHT31;68951;53.130;18.104;2023-04-25T06:30:00;10.48;68.98
79494;SHT31;68951;53.130;18.104;2023-04-25T06:32:27;10.50;68.98
79494;SHT31;68951;53.130;18.104;2023-04-25T06:34:56;10.51;69.00
79494;SHT31;68951;53.130;18.104;2023-04-25T06:37:23;10.54;69.00
79494;SHT31;68951;53.130;18.104;2023-04-25T06:39:50;10.52;68.92
79494;SHT31;68951;53.130;18.104;2023-04-25T06:42:17;10.54;68.90
79494;SHT31;68951;53.130;18.104;2023-04-25T06:44:43;10.58;68.83
79494;SHT31;68951;53.130;18.104;2023-04-25T06:47:10;10.54;68.70
79494;SHT31;68951;53.130;18.104;2023-04-25T06:49:37;10.53;68.60
79494;SHT31;68951;53.130;18.104;2023-04-25T06:52:04;10.56;68.52
79494;SHT31;68951;53.130;18.104;2023-04-25T06:54:31;10.59;68.49
79494;SHT31;68951;53.130;18.104;2023-04-25T06:56:57;10.67;68.41
79494;SHT31;68951;53.130;18.104;2023-04-25T06:59:24;10.77;68.40
79494;SHT31;68951;53.130;18.104;2023-04-25T07:01:51;10.89;68.36
79494;SHT31;68951;53.130;18.104;2023-04-25T07:04:18;11.04;68.28
79494;SHT31;68951;53.130;18.104;2023-04-25T07:06:45;11.03;68.01
79494;SHT31;68951;53.130;18.104;2023-04-25T07:09:13;10.99;67.83
79494;SHT31;68951;53.130;18.104;2023-04-25T07:11:40;11.01;67.80
79494;SHT31;68951;53.130;18.104;2023-04-25T07:14:07;11.13;67.70
79494;SHT31;68951;53.130;18.104;2023-04-25T07:16:34;11.24;67.53
79494;SHT31;68951;53.130;18.104;2023-04-25T07:19:01;11.47;67.37
79494;SHT31;68951;53.130;18.104;2023-04-25T07:21:28;11.60;67.13
79494;SHT31;68951;53.130;18.104;2023-04-25T07:23:55;11.64;66.74
79494;SHT31;68951;53.130;18.104;2023-04-25T07:26:22;11.69;66.40
79494;SHT31;68951;53.130;18.104;2023-04-25T07:28:49;11.70;66.11
79494;SHT31;68951;53.130;18.104;2023-04-25T07:31:17;11.67;65.90
79494;SHT31;68951;53.130;18.104;2023-04-25T07:33:44;11.79;65.80
79494;SHT31;68951;53.130;18.104;2023-04-25T07:36:12;11.91;65.61
79494;SHT31;68951;53.130;18.104;2023-04-25T07:38:39;12.04;65.49
79494;SHT31;68951;53.130;18.104;2023-04-25T07:41:06;12.13;65.36
79494;SHT31;68951;53.130;18.104;2023-04-25T07:43:33;12.21;65.19
79494;SHT31;68951;53.130;18.104;2023-04-25T07:46:00;12.36;65.01
79494;SHT31;68951;53.130;18.104;2023-04-25T07:48:27;12.39;64.57
79494;SHT31;68951;53.130;18.104;2023-04-25T07:50:54;12.37;64.00
79494;SHT31;68951;53.130;18.104;2023-04-25T07:53:19;12.35;63.76
79494;SHT31;68951;53.130;18.104;2023-04-25T07:55:46;12.40;63.73
79494;SHT31;68951;53.130;18.104;2023-04-25T07:58:13;12.32;63.60
79494;SHT31;68951;53.130;18.104;2023-04-25T08:00:41;12.28;63.58
79494;SHT31;68951;53.130;18.104;2023-04-25T08:03:09;12.24;63.38
79494;SHT31;68951;53.130;18.104;2023-04-25T08:05:36;12.10;63.13
79494;SHT31;68951;53.130;18.104;2023-04-25T08:08:02;12.09;63.15
79494;SHT31;68951;53.130;18.104;2023-04-25T08:10:30;12.10;63.10
79494;SHT31;68951;53.130;18.104;2023-04-25T08:15:43;12.27;63.13
79494;SHT31;68951;53.130;18.104;2023-04-25T08:18:10;12.31;63.06
79494;SHT31;68951;53.130;18.104;2023-04-25T08:20:36;12.34;63.01
79494;SHT31;68951;53.130;18.104;2023-04-25T08:23:03;12.34;62.89
79494;SHT31;68951;53.130;18.104;2023-04-25T08:25:30;12.30;62.81
79494;SHT31;68951;53.130;18.104;2023-04-25T08:27:57;12.26;62.82
79494;SHT31;68951;53.130;18.104;2023-04-25T08:30:25;12.30;62.88
79494;SHT31;68951;53.130;18.104;2023-04-25T08:32:53;12.43;62.95
79494;SHT31;68951;53.130;18.104;2023-04-25T08:35:20;12.57;62.89
79494;SHT31;68951;53.130;18.104;2023-04-25T08:37:47;12.59;62.80
79494;SHT31;68951;53.130;18.104;2023-04-25T08:40:15;12.68;62.74
79494;SHT31;68951;53.130;18.104;2023-04-25T08:42:42;12.79;62.69
79494;SHT31;68951;53.130;18.104;2023-04-25T08:45:09;12.90;62.51
79494;SHT31;68951;53.130;18.104;2023-04-25T08:47:37;13.02;62.40
79494;SHT31;68951;53.130;18.104;2023-04-25T08:50:06;13.07;62.26
79494;SHT31;68951;53.130;18.104;2023-04-25T08:52:37;13.13;62.09
79494;SHT31;68951;53.130;18.104;2023-04-25T08:55:12;13.24;61.93
79494;SHT31;68951;53.130;18.104;2023-04-25T08:57:40;13.38;61.86
79494;SHT31;68951;53.130;18.104;2023-04-25T09:00:12;13.41;61.66
79494;SHT31;68951;53.130;18.104;2023-04-25T09:02:40;13.46;61.43
79494;SHT31;68951;53.130;18.104;2023-04-25T09:05:10;13.48;61.17
79494;SHT31;68951;53.130;18.104;2023-04-25T09:07:40;13.34;60.84
79494;SHT31;68951;53.130;18.104;2023-04-25T09:10:07;13.13;60.55
79494;SHT31;68951;53.130;18.104;2023-04-25T09:12:35;12.99;60.43
79494;SHT31;68951;53.130;18.104;2023-04-25T09:17:36;12.97;60.60
79494;SHT31;68951;53.130;18.104;2023-04-25T09:20:10;12.85;60.50
79494;SHT31;68951;53.130;18.104;2023-04-25T09:22:39;12.80;60.57
79494;SHT31;68951;53.130;18.104;2023-04-25T09:25:10;12.83;60.64
79494;SHT31;68951;53.130;18.104;2023-04-25T09:27:52;12.95;60.73
79494;SHT31;68951;53.130;18.104;2023-04-25T09:30:29;13.12;60.71
79494;SHT31;68951;53.130;18.104;2023-04-25T09:33:03;13.31;60.72
79494;SHT31;68951;53.130;18.104;2023-04-25T09:35:38;13.56;60.70
79494;SHT31;68951;53.130;18.104;2023-04-25T09:38:09;13.65;60.42
79494;SHT31;68951;53.130;18.104;2023-04-25T09:40:45;13.59;60.04
79494;SHT31;68951;53.130;18.104;2023-04-25T09:43:20;13.65;59.83
79494;SHT31;68951;53.130;18.104;2023-04-25T09:45:49;13.71;59.59
79494;SHT31;68951;53.130;18.104;2023-04-25T09:48:18;13.83;59.36
79494;SHT31;68951;53.130;18.104;2023-04-25T09:51:05;13.88;59.01
79494;SHT31;68951;53.130;18.104;2023-04-25T09:53:45;13.73;58.36
79494;SHT31;68951;53.130;18.104;2023-04-25T09:56:16;13.72;58.19
79494;SHT31;68951;53.130;18.104;2023-04-25T09:58:46;13.64;58.01
79494;SHT31;68951;53.130;18.104;2023-04-25T10:01:15;13.64;58.02
79494;SHT31;68951;53.130;18.104;2023-04-25T10:03:43;13.73;57.92
79494;SHT31;68951;53.130;18.104;2023-04-25T10:06:18;13.89;57.77
79494;SHT31;68951;53.130;18.104;2023-04-25T10:08:49;13.86;57.39
79494;SHT31;68951;53.130;18.104;2023-04-25T10:11:22;13.74;57.12
79494;SHT31;68951;53.130;18.104;2023-04-25T10:13:52;13.64;57.00
79494;SHT31;68951;53.130;18.104;2023-04-25T10:16:19;13.59;57.00
79494;SHT31;68951;53.130;18.104;2023-04-25T10:18:47;13.49;56.92
79494;SHT31;68951;53.130;18.104;2023-04-25T10:21:14;13.47;56.99
79494;SHT31;68951;53.130;18.104;2023-04-25T10:23:42;13.54;56.98
79494;SHT31;68951;53.130;18.104;2023-04-25T10:26:11;13.58;56.90
79494;SHT31;68951;53.130;18.104;2023-04-25T10:28:59;13.73;56.93
79494;SHT31;68951;53.130;18.104;2023-04-25T10:31:31;13.80;56.71
79494;SHT31;68951;53.130;18.104;2023-04-25T10:33:59;13.80;56.59
79494;SHT31;68951;53.130;18.104;2023-04-25T10:36:27;13.83;56.50
79494;SHT31;68951;53.130;18.104;2023-04-25T10:39:02;13.82;56.29
79494;SHT31;68951;53.130;18.104;2023-04-25T10:41:53;13.85;56.08
79494;SHT31;68951;53.130;18.104;2023-04-25T10:44:27;13.91;55.98
79494;SHT31;68951;53.130;18.104;2023-04-25T10:46:56;13.92;55.89
79494;SHT31;68951;53.130;18.104;2023-04-25T10:49:28;13.89;55.86
79494;SHT31;68951;53.130;18.104;2023-04-25T10:52:11;13.95;55.97
79494;SHT31;68951;53.130;18.104;2023-04-25T10:57:26;13.80;55.51
79494;SHT31;68951;53.130;18.104;2023-04-25T11:02:40;13.85;55.59
79494;SHT31;68951;53.130;18.104;2023-04-25T11:05:09;13.99;55.57
79494;SHT31;68951;53.130;18.104;2023-04-25T11:07:50;14.00;55.30
79494;SHT31;68951;53.130;18.104;2023-04-25T11:10:27;13.93;55.07
79494;SHT31;68951;53.130;18.104;2023-04-25T11:12:56;13.85;54.95
79494;SHT31;68951;53.130;18.104;2023-04-25T11:15:24;13.81;54.89
79494;SHT31;68951;53.130;18.104;2023-04-25T11:23:53;13.77;54.95
79494;SHT31;68951;53.130;18.104;2023-04-25T11:26:23;13.73;54.90
79494;SHT31;68951;53.130;18.104;2023-04-25T11:28:51;13.77;54.99
79494;SHT31;68951;53.130;18.104;2023-04-25T11:31:24;13.83;55.02
79494;SHT31;68951;53.130;18.104;2023-04-25T11:33:53;13.90;55.04
79494;SHT31;68951;53.130;18.104;2023-04-25T11:36:23;13.99;55.09
79494;SHT31;68951;53.130;18.104;2023-04-25T11:38:52;14.03;55.16
79494;SHT31;68951;53.130;18.104;2023-04-25T11:41:20;14.02;55.17
79494;SHT31;68951;53.130;18.104;2023-04-25T11:43:48;14.00;55.10
79494;SHT31;68951;53.130;18.104;2023-04-25T11:46:18;13.93;55.05
79494;SHT31;68951;53.130;18.104;2023-04-25T11:48:46;13.84;55.08
79494;SHT31;68951;53.130;18.104;2023-04-25T11:51:14;13.77;55.11
79494;SHT31;68951;53.130;18.104;2023-04-25T11:53:41;13.62;55.10
79494;SHT31;68951;53.130;18.104;2023-04-25T11:56:10;13.46;55.12
79494;SHT31;68951;53.130;18.104;2023-04-25T11:58:57;13.36;55.22
79494;SHT31;68951;53.130;18.104;2023-04-25T12:01:33;13.29;55.37
79494;SHT31;68951;53.130;18.104;2023-04-25T12:04:16;13.22;55.52
79494;SHT31;68951;53.130;18.104;2023-04-25T12:06:51;13.20;55.68
79494;SHT31;68951;53.130;18.104;2023-04-25T12:09:27;13.19;55.77
79494;SHT31;68951;53.130;18.104;2023-04-25T12:11:57;13.24;55.80
79494;SHT31;68951;53.130;18.104;2023-04-25T12:14:32;13.19;55.72
79494;SHT31;68951;53.130;18.104;2023-04-25T12:17:02;13.21;55.78
79494;SHT31;68951;53.130;18.104;2023-04-25T12:19:32;13.32;55.88
79494;SHT31;68951;53.130;18.104;2023-04-25T12:22:22;13.48;55.90
79494;SHT31;68951;53.130;18.104;2023-04-25T12:24:51;13.62;55.75
79494;SHT31;68951;53.130;18.104;2023-04-25T12:27:20;13.74;55.57
79494;SHT31;68951;53.130;18.104;2023-04-25T12:29:53;13.77;55.22
79494;SHT31;68951;53.130;18.104;2023-04-25T12:32:22;13.85;55.10
79494;SHT31;68951;53.130;18.104;2023-04-25T12:34:50;13.93;54.98
79494;SHT31;68951;53.130;18.104;2023-04-25T12:37:17;13.84;54.55
79494;SHT31;68951;53.130;18.104;2023-04-25T12:39:44;13.80;54.37
79494;SHT31;68951;53.130;18.104;2023-04-25T12:42:11;13.90;54.33
79494;SHT31;68951;53.130;18.104;2023-04-25T12:44:38;14.10;54.39
79494;SHT31;68951;53.130;18.104;2023-04-25T12:47:05;14.29;54.26
79494;SHT31;68951;53.130;18.104;2023-04-25T12:49:32;14.38;54.11
79494;SHT31;68951;53.130;18.104;2023-04-25T12:51:59;14.47;54.03
79494;SHT31;68951;53.130;18.104;2023-04-25T12:54:26;14.61;54.00
79494;SHT31;68951;53.130;18.104;2023-04-25T12:56:53;14.74;53.93
79494;SHT31;68951;53.130;18.104;2023-04-25T12:59:20;14.65;53.64
79494;SHT31;68951;53.130;18.104;2023-04-25T13:01:47;14.59;53.50
79494;SHT31;68951;53.130;18.104;2023-04-25T13:04:14;14.38;53.18
79494;SHT31;68951;53.130;18.104;2023-04-25T13:06:41;14.21;53.01
79494;SHT31;68951;53.130;18.104;2023-04-25T13:09:08;14.20;52.97
79494;SHT31;68951;53.130;18.104;2023-04-25T13:11:36;14.35;52.91
79494;SHT31;68951;53.130;18.104;2023-04-25T13:14:03;14.59;52.81
79494;SHT31;68951;53.130;18.104;2023-04-25T13:16:30;14.78;52.78
79494;SHT31;68951;53.130;18.104;2023-04-25T13:18:57;14.94;52.71
79494;SHT31;68951;53.130;18.104;2023-04-25T13:21:24;14.96;52.59
79494;SHT31;68951;53.130;18.104;2023-04-25T13:23:51;15.03;52.52
79494;SHT31;68951;53.130;18.104;2023-04-25T13:26:18;14.99;52.39
79494;SHT31;68951;53.130;18.104;2023-04-25T13:28:45;14.88;52.30
79494;SHT31;68951;53.130;18.104;2023-04-25T13:31:12;14.84;52.40
79494;SHT31;68951;53.130;18.104;2023-04-25T13:33:39;14.82;52.49
79494;SHT31;68951;53.130;18.104;2023-04-25T13:36:06;14.81;52.63
79494;SHT31;68951;53.130;18.104;2023-04-25T13:38:33;14.79;52.78
79494;SHT31;68951;53.130;18.104;2023-04-25T13:41:00;14.73;52.91
79494;SHT31;68951;53.130;18.104;2023-04-25T13:43:27;14.60;53.01
79494;SHT31;68951;53.130;18.104;2023-04-25T13:45:54;14.54;53.17
79494;SHT31;68951;53.130;18.104;2023-04-25T13:48:20;14.51;53.36
79494;SHT31;68951;53.130;18.104;2023-04-25T13:50:48;14.47;53.53
79494;SHT31;68951;53.130;18.104;2023-04-25T13:53:15;14.46;53.74
79494;SHT31;68951;53.130;18.104;2023-04-25T13:55:42;14.44;53.88
79494;SHT31;68951;53.130;18.104;2023-04-25T13:58:09;14.43;53.95
79494;SHT31;68951;53.130;18.104;2023-04-25T14:00:37;14.45;54.13
79494;SHT31;68951;53.130;18.104;2023-04-25T14:03:05;14.46;54.25
79494;SHT31;68951;53.130;18.104;2023-04-25T14:05:34;14.45;54.31
79494;SHT31;68951;53.130;18.104;2023-04-25T14:08:07;14.51;54.37
79494;SHT31;68951;53.130;18.104;2023-04-25T14:10:35;14.66;54.40
79494;SHT31;68951;53.130;18.104;2023-04-25T14:13:03;14.88;54.42
79494;SHT31;68951;53.130;18.104;2023-04-25T14:15:31;15.01;54.41
79494;SHT31;68951;53.130;18.104;2023-04-25T14:17:59;15.04;54.31
79494;SHT31;68951;53.130;18.104;2023-04-25T14:20:27;15.12;54.28
79494;SHT31;68951;53.130;18.104;2023-04-25T14:22:54;15.11;54.09
79494;SHT31;68951;53.130;18.104;2023-04-25T14:25:22;14.91;53.91
79494;SHT31;68951;53.130;18.104;2023-04-25T14:27:50;14.76;53.97
79494;SHT31;68951;53.130;18.104;2023-04-25T14:30:17;14.59;53.94
79494;SHT31;68951;53.130;18.104;2023-04-25T14:32:46;14.26;53.88
79494;SHT31;68951;53.130;18.104;2023-04-25T14:35:14;13.88;53.80
79494;SHT31;68951;53.130;18.104;2023-04-25T14:37:41;13.66;53.87
79494;SHT31;68951;53.130;18.104;2023-04-25T14:40:08;13.44;53.94
79494;SHT31;68951;53.130;18.104;2023-04-25T14:42:36;13.24;54.10
79494;SHT31;68951;53.130;18.104;2023-04-25T14:45:05;13.05;54.28
79494;SHT31;68951;53.130;18.104;2023-04-25T14:47:35;12.88;54.49
79494;SHT31;68951;53.130;18.104;2023-04-25T14:50:03;12.70;54.78
79494;SHT31;68951;53.130;18.104;2023-04-25T14:52:31;12.56;55.17
79494;SHT31;68951;53.130;18.104;2023-04-25T14:54:57;12.41;55.66
79494;SHT31;68951;53.130;18.104;2023-04-25T14:57:26;12.23;56.26
79494;SHT31;68951;53.130;18.104;2023-04-25T14:59:53;12.12;56.82
79494;SHT31;68951;53.130;18.104;2023-04-25T15:02:20;12.01;57.39
79494;SHT31;68951;53.130;18.104;2023-04-25T15:04:47;11.92;57.90
79494;SHT31;68951;53.130;18.104;2023-04-25T15:07:13;11.88;58.37
79494;SHT31;68951;53.130;18.104;2023-04-25T15:09:41;11.85;58.82
79494;SHT31;68951;53.130;18.104;2023-04-25T15:12:08;11.85;59.23
79494;SHT31;68951;53.130;18.104;2023-04-25T15:14:35;11.88;59.57
79494;SHT31;68951;53.130;18.104;2023-04-25T15:17:02;11.88;59.91
79494;SHT31;68951;53.130;18.104;2023-04-25T15:19:29;11.95;60.25
79494;SHT31;68951;53.130;18.104;2023-04-25T15:21:55;12.04;60.55
79494;SHT31;68951;53.130;18.104;2023-04-25T15:24:22;12.12;60.74
79494;SHT31;68951;53.130;18.104;2023-04-25T15:26:49;12.23;61.00
79494;SHT31;68951;53.130;18.104;2023-04-25T15:29:16;12.34;61.17
79494;SHT31;68951;53.130;18.104;2023-04-25T15:31:43;12.38;61.29
79494;SHT31;68951;53.130;18.104;2023-04-25T15:34:10;12.39;61.40
79494;SHT31;68951;53.130;18.104;2023-04-25T15:36:37;12.36;61.40
79494;SHT31;68951;53.130;18.104;2023-04-25T15:39:04;12.33;61.47
79494;SHT31;68951;53.130;18.104;2023-04-25T15:41:31;12.29;61.50
79494;SHT31;68951;53.130;18.104;2023-04-25T15:43:59;12.28;61.59
79494;SHT31;68951;53.130;18.104;2023-04-25T15:46:29;12.24;61.60
79494;SHT31;68951;53.130;18.104;2023-04-25T15:48:56;12.17;61.44
79494;SHT31;68951;53.130;18.104;2023-04-25T15:51:23;12.11;61.14
79494;SHT31;68951;53.130;18.104;2023-04-25T15:53:50;12.08;60.85